sensor_id;sensor_type;location;lat;lon;timestamp;temperature;humidity
85671;DHT22;76102;50.890;3.932;2024-03-22T00:01:45;12.30;88.50
85671;DHT22;76102;50.890;3.932;2024-03-22T00:04:12;12.30;88.70
85671;DHT22;76102;50.890;3.932;2024-03-22T00:06:41;12.30;88.20
85671;DHT22;76102;50.890;3.932;2024-03-22T00:09:10;12.40;87.50
85671;DHT22;76102;50.890;3.932;2024-03-22T00:11:35;12.40;86.90
85671;DHT22;76102;50.890;3.932;2024-03-22T00:14:02;12.40;87.00
85671;DHT22;76102;50.890;3.932;2024-03-22T00:16:30;12.40;87.30
85671;DHT22;76102;50.890;3.932;2024-03-22T00:18:55;12.30;86.70
85671;DHT22;76102;50.890;3.932;2024-03-22T00:21:22;12.10;87.30
85671;DHT22;76102;50.890;3.932;2024-03-22T00:23:48;12.20;86.50
85671;DHT22;76102;50.890;3.932;2024-03-22T00:26:14;12.20;86.10
85671;DHT22;76102;50.890;3.932;2024-03-22T00:28:42;12.00;86.30
85671;DHT22;76102;50.890;3.932;2024-03-22T00:31:08;12.00;86.50
85671;DHT22;76102;50.890;3.932;2024-03-22T00:33:36;12.00;86.00
85671;DHT22;76102;50.890;3.932;2024-03-22T00:36:05;11.90;86.40
85671;DHT22;76102;50.890;3.932;2024-03-22T00:38:33;11.80;86.70
85671;DHT22;76102;50.890;3.932;2024-03-22T00:40:58;11.70;86.70
85671;DHT22;76102;50.890;3.932;2024-03-22T00:43:26;11.60;86.60
85671;DHT22;76102;50.890;3.932;2024-03-22T00:45:57;11.50;87.20
85671;DHT22;76102;50.890;3.932;2024-03-22T00:48:24;11.50;87.20
85671;DHT22;76102;50.890;3.932;2024-03-22T00:50:49;11.50;87.10
85671;DHT22;76102;50.890;3.932;2024-03-22T00:53:17;11.60;87.10
85671;DHT22;76102;50.890;3.932;2024-03-22T00:55:42;11.70;86.30
85671;DHT22;76102;50.890;3.932;2024-03-22T00:58:08;11.70;86.50
85671;DHT22;76102;50.890;3.932;2024-03-22T01:00:34;11.70;86.30
85671;DHT22;76102;50.890;3.932;2024-03-22T01:03:01;11.60;86.30
85671;DHT22;76102;50.890;3.932;2024-03-22T01:05:29;11.70;86.50
85671;DHT22;76102;50.890;3.932;2024-03-22T01:07:57;11.60;86.40
85671;DHT22;76102;50.890;3.932;2024-03-22T01:10:23;11.50;86.90
85671;DHT22;76102;50.890;3.932;2024-03-22T01:12:52;11.50;86.90
85671;DHT22;76102;50.890;3.932;2024-03-22T01:15:23;11.60;86.60
85671;DHT22;76102;50.890;3.932;2024-03-22T01:17:49;11.50;86.80
85671;DHT22;76102;50.890;3.932;2024-03-22T01:20:17;11.50;87.00
85671;DHT22;76102;50.890;3.932;2024-03-22T01:22:42;11.50;87.00
85671;DHT22;76102;50.890;3.932;2024-03-22T01:25:10;11.50;87.00
85671;DHT22;76102;50.890;3.932;2024-03-22T01:27:41;11.50;87.00
85671;DHT22;76102;50.890;3.932;2024-03-22T01:30:07;11.50;87.10
85671;DHT22;76102;50.890;3.932;2024-03-22T01:32:35;11.40;87.00
85671;DHT22;76102;50.890;3.932;2024-03-22T01:35:03;11.30;87.20
85671;DHT22;76102;50.890;3.932;2024-03-22T01:37:33;11.20;88.80
85671;DHT22;76102;50.890;3.932;2024-03-22T01:39:59;11.20;88.00
85671;DHT22;76102;50.890;3.932;2024-03-22T01:42:27;11.10;88.10
85671;DHT22;76102;50.890;3.932;2024-03-22T01:44:53;11.10;88.00
85671;DHT22;76102;50.890;3.932;2024-03-22T01:47:18;11.20;87.90
85671;DHT22;76102;50.890;3.932;2024-03-22T01:49:47;11.20;87.50
85671;DHT22;76102;50.890;3.932;2024-03-22T01:52:14;11.10;87.80
85671;DHT22;76102;50.890;3.932;2024-03-22T01:54:39;11.10;88.00
85671;DHT22;76102;50.890;3.932;2024-03-22T01:57:07;11.10;88.10
85671;DHT22;76102;50.890;3.932;2024-03-22T01:59:33;11.30;87.00
85671;DHT22;76102;50.890;3.932;2024-03-22T02:01:59;11.40;86.70
85671;DHT22;76102;50.890;3.932;2024-03-22T02:04:25;11.10;87.40
85671;DHT22;76102;50.890;3.932;2024-03-22T02:06:51;11.00;88.40
85671;DHT22;76102;50.890;3.932;2024-03-22T02:09:17;11.10;88.00
85671;DHT22;76102;50.890;3.932;2024-03-22T02:11:49;11.10;87.90
85671;DHT22;76102;50.890;3.932;2024-03-22T02:14:15;11.20;87.80
85671;DHT22;76102;50.890;3.932;2024-03-22T02:16:41;11.20;87.50
85671;DHT22;76102;50.890;3.932;2024-03-22T02:19:09;11.20;87.40
85671;DHT22;76102;50.890;3.932;2024-03-22T02:21:35;11.10;87.70
85671;DHT22;76102;50.890;3.932;2024-03-22T02:24:05;11.20;87.30
85671;DHT22;76102;50.890;3.932;2024-03-22T02:26:30;11.10;87.50
85671;DHT22;76102;50.890;3.932;2024-03-22T02:28:56;11.10;87.30
85671;DHT22;76102;50.890;3.932;2024-03-22T02:31:22;10.90;87.90
85671;DHT22;76102;50.890;3.932;2024-03-22T02:33:48;10.80;88.50
85671;DHT22;76102;50.890;3.932;2024-03-22T02:36:13;10.70;88.90
85671;DHT22;76102;50.890;3.932;2024-03-22T02:38:39;10.80;88.40
85671;DHT22;76102;50.890;3.932;2024-03-22T02:41:04;10.80;88.00
85671;DHT22;76102;50.890;3.932;2024-03-22T02:43:30;10.80;88.10
85671;DHT22;76102;50.890;3.932;2024-03-22T02:46:00;10.60;88.90
85671;DHT22;76102;50.890;3.932;2024-03-22T02:48:28;10.60;88.90
85671;DHT22;76102;50.890;3.932;2024-03-22T02:50:57;10.70;88.90
85671;DHT22;76102;50.890;3.932;2024-03-22T02:53:23;10.70;88.70
85671;DHT22;76102;50.890;3.932;2024-03-22T02:55:48;10.80;88.10
85671;DHT22;76102;50.890;3.932;2024-03-22T02:58:18;10.80;88.30
85671;DHT22;76102;50.890;3.932;2024-03-22T03:00:46;10.70;88.40
85671;DHT22;76102;50.890;3.932;2024-03-22T03:03:14;10.60;88.80
85671;DHT22;76102;50.890;3.932;2024-03-22T03:05:39;10.60;89.50
85671;DHT22;76102;50.890;3.932;2024-03-22T03:08:06;10.50;89.70
85671;DHT22;76102;50.890;3.932;2024-03-22T03:10:32;10.60;89.60
85671;DHT22;76102;50.890;3.932;2024-03-22T03:13:00;10.70;89.50
85671;DHT22;76102;50.890;3.932;2024-03-22T03:15:28;10.70;89.50
85671;DHT22;76102;50.890;3.932;2024-03-22T03:17:58;10.60;89.60
85671;DHT22;76102;50.890;3.932;2024-03-22T03:20:25;10.50;90.10
85671;DHT22;76102;50.890;3.932;2024-03-22T03:22:51;10.40;90.30
85671;DHT22;76102;50.890;3.932;2024-03-22T03:25:19;10.40;90.40
85671;DHT22;76102;50.890;3.932;2024-03-22T03:27:44;10.40;90.30
85671;DHT22;76102;50.890;3.932;2024-03-22T03:30:12;10.50;90.00
85671;DHT22;76102;50.890;3.932;2024-03-22T03:32:38;10.50;90.20
85671;DHT22;76102;50.890;3.932;2024-03-22T03:35:04;10.60;89.60
85671;DHT22;76102;50.890;3.932;2024-03-22T03:37:32;10.50;90.00
85671;DHT22;76102;50.890;3.932;2024-03-22T03:40:00;10.50;90.30
85671;DHT22;76102;50.890;3.932;2024-03-22T03:42:26;10.40;90.40
85671;DHT22;76102;50.890;3.932;2024-03-22T03:44:52;10.50;90.00
85671;DHT22;76102;50.890;3.932;2024-03-22T03:47:17;10.50;89.40
85671;DHT22;76102;50.890;3.932;2024-03-22T03:49:45;10.50;89.30
85671;DHT22;76102;50.890;3.932;2024-03-22T03:52:11;10.40;89.50
85671;DHT22;76102;50.890;3.932;2024-03-22T03:54:39;10.40;89.40
85671;DHT22;76102;50.890;3.932;2024-03-22T03:57:05;10.40;89.80
85671;DHT22;76102;50.890;3.932;2024-03-22T03:59:30;10.40;89.60
85671;DHT22;76102;50.890;3.932;2024-03-22T04:01:56;10.50;89.20
85671;DHT22;76102;50.890;3.932;2024-03-22T04:04:26;10.50;89.20
85671;DHT22;76102;50.890;3.932;2024-03-22T04:06:54;10.40;89.40
85671;DHT22;76102;50.890;3.932;2024-03-22T04:09:22;10.40;89.60
85671;DHT22;76102;50.890;3.932;2024-03-22T04:11:47;10.40;89.50
85671;DHT22;76102;50.890;3.932;2024-03-22T04:14:18;10.30;90.00
85671;DHT22;76102;50.890;3.932;2024-03-22T04:16:46;10.30;90.00
85671;DHT22;76102;50.890;3.932;2024-03-22T04:19:11;10.20;90.10
85671;DHT22;76102;50.890;3.932;2024-03-22T04:21:37;10.30;90.30
85671;DHT22;76102;50.890;3.932;2024-03-22T04:24:02;10.30;90.20
85671;DHT22;76102;50.890;3.932;2024-03-22T04:26:28;10.30;90.00
85671;DHT22;76102;50.890;3.932;2024-03-22T04:28:56;10.40;89.80
85671;DHT22;76102;50.890;3.932;2024-03-22T04:31:22;10.30;89.60
85671;DHT22;76102;50.890;3.932;2024-03-22T04:33:48;10.20;90.20
85671;DHT22;76102;50.890;3.932;2024-03-22T04:36:16;10.10;90.50
85671;DHT22;76102;50.890;3.932;2024-03-22T04:38:41;10.20;90.40
85671;DHT22;76102;50.890;3.932;2024-03-22T04:41:09;10.20;90.30
85671;DHT22;76102;50.890;3.932;2024-03-22T04:43:38;10.20;90.10
85671;DHT22;76102;50.890;3.932;2024-03-22T04:46:06;10.10;90.30
85671;DHT22;76102;50.890;3.932;2024-03-22T04:48:31;10.10;90.30
85671;DHT22;76102;50.890;3.932;2024-03-22T04:50:57;10.00;90.50
85671;DHT22;76102;50.890;3.932;2024-03-22T04:53:22;10.00;90.50
85671;DHT22;76102;50.890;3.932;2024-03-22T04:55:49;10.00;90.70
85671;DHT22;76102;50.890;3.932;2024-03-22T04:58:19;10.00;90.70
85671;DHT22;76102;50.890;3.932;2024-03-22T05:00:45;10.10;90.40
85671;DHT22;76102;50.890;3.932;2024-03-22T05:03:12;10.10;90.40
85671;DHT22;76102;50.890;3.932;2024-03-22T05:05:38;10.00;90.60
85671;DHT22;76102;50.890;3.932;2024-03-22T05:08:04;10.10;90.50
85671;DHT22;76102;50.890;3.932;2024-03-22T05:10:30;10.10;90.40
85671;DHT22;76102;50.890;3.932;2024-03-22T05:12:59;10.00;90.70
85671;DHT22;76102;50.890;3.932;2024-03-22T05:15:27;10.10;90.60
85671;DHT22;76102;50.890;3.932;2024-03-22T05:17:53;10.10;90.40
85671;DHT22;76102;50.890;3.932;2024-03-22T05:20:19;10.10;90.40
85671;DHT22;76102;50.890;3.932;2024-03-22T05:22:46;10.00;90.50
85671;DHT22;76102;50.890;3.932;2024-03-22T05:25:12;10.10;90.80
85671;DHT22;76102;50.890;3.932;2024-03-22T05:27:38;10.20;90.30
85671;DHT22;76102;50.890;3.932;2024-03-22T05:30:06;10.10;90.40
85671;DHT22;76102;50.890;3.932;2024-03-22T05:32:32;10.10;90.80
85671;DHT22;76102;50.890;3.932;2024-03-22T05:34:58;10.10;90.40
85671;DHT22;76102;50.890;3.932;2024-03-22T05:37:26;10.20;90.30
85671;DHT22;76102;50.890;3.932;2024-03-22T05:39:54;10.30;90.00
85671;DHT22;76102;50.890;3.932;2024-03-22T05:42:20;10.20;90.10
85671;DHT22;76102;50.890;3.932;2024-03-22T05:44:48;10.10;90.30
85671;DHT22;76102;50.890;3.932;2024-03-22T05:47:16;10.20;90.30
85671;DHT22;76102;50.890;3.932;2024-03-22T05:49:42;10.10;90.30
85671;DHT22;76102;50.890;3.932;2024-03-22T05:52:07;10.10;90.80
85671;DHT22;76102;50.890;3.932;2024-03-22T05:54:33;10.20;90.40
85671;DHT22;76102;50.890;3.932;2024-03-22T05:57:02;10.20;90.10
85671;DHT22;76102;50.890;3.932;2024-03-22T05:59:28;10.20;90.10
85671;DHT22;76102;50.890;3.932;2024-03-22T06:01:54;10.10;90.00
85671;DHT22;76102;50.890;3.932;2024-03-22T06:04:19;10.10;90.20
85671;DHT22;76102;50.890;3.932;2024-03-22T06:06:45;10.10;90.50
85671;DHT22;76102;50.890;3.932;2024-03-22T06:09:11;10.00;90.30
85671;DHT22;76102;50.890;3.932;2024-03-22T06:11:38;10.00;90.00
85671;DHT22;76102;50.890;3.932;2024-03-22T06:14:05;10.00;89.90
85671;DHT22;76102;50.890;3.932;2024-03-22T06:16:30;10.00;90.00
85671;DHT22;76102;50.890;3.932;2024-03-22T06:18:56;10.00;89.70
85671;DHT22;76102;50.890;3.932;2024-03-22T06:21:22;10.00;89.40
85671;DHT22;76102;50.890;3.932;2024-03-22T06:23:52;10.00;89.30
85671;DHT22;76102;50.890;3.932;2024-03-22T06:26:20;10.00;88.90
85671;DHT22;76102;50.890;3.932;2024-03-22T06:28:45;10.00;89.00
85671;DHT22;76102;50.890;3.932;2024-03-22T06:31:14;10.00;88.90
85671;DHT22;76102;50.890;3.932;2024-03-22T06:33:42;10.00;88.70
85671;DHT22;76102;50.890;3.932;2024-03-22T06:36:10;10.10;88.50
85671;DHT22;76102;50.890;3.932;2024-03-22T06:38:36;10.10;88.60
85671;DHT22;76102;50.890;3.932;2024-03-22T06:41:02;10.00;88.90
85671;DHT22;76102;50.890;3.932;2024-03-22T06:43:31;10.10;89.40
85671;DHT22;76102;50.890;3.932;2024-03-22T06:45:57;10.10;89.10
85671;DHT22;76102;50.890;3.932;2024-03-22T06:48:25;10.00;89.30
85671;DHT22;76102;50.890;3.932;2024-03-22T06:50:50;10.10;89.20
85671;DHT22;76102;50.890;3.932;2024-03-22T06:53:18;10.20;88.80
85671;DHT22;76102;50.890;3.932;2024-03-22T06:55:46;10.20;88.50
85671;DHT22;76102;50.890;3.932;2024-03-22T06:58:14;10.20;88.80
85671;DHT22;76102;50.890;3.932;2024-03-22T07:00:42;10.20;88.30
85671;DHT22;76102;50.890;3.932;2024-03-22T07:03:12;10.20;87.80
85671;DHT22;76102;50.890;3.932;2024-03-22T07:05:40;10.20;88.20
85671;DHT22;76102;50.890;3.932;2024-03-22T07:08:08;10.20;87.80
85671;DHT22;76102;50.890;3.932;2024-03-22T07:10:39;10.10;87.40
85671;DHT22;76102;50.890;3.932;2024-03-22T07:13:05;10.20;87.40
85671;DHT22;76102;50.890;3.932;2024-03-22T07:15:30;10.10;87.60
85671;DHT22;76102;50.890;3.932;2024-03-22T07:18:00;10.20;87.30
85671;DHT22;76102;50.890;3.932;2024-03-22T07:20:26;10.20;87.20
85671;DHT22;76102;50.890;3.932;2024-03-22T07:22:54;10.30;86.50
85671;DHT22;76102;50.890;3.932;2024-03-22T07:25:19;10.30;86.40
85671;DHT22;76102;50.890;3.932;2024-03-22T07:27:45;10.30;87.00
85671;DHT22;76102;50.890;3.932;2024-03-22T07:30:14;10.40;86.40
85671;DHT22;76102;50.890;3.932;2024-03-22T07:32:42;10.50;85.50
85671;DHT22;76102;50.890;3.932;2024-03-22T07:35:08;10.40;86.40
85671;DHT22;76102;50.890;3.932;2024-03-22T07:37:33;10.60;86.60
85671;DHT22;76102;50.890;3.932;2024-03-22T07:40:06;10.60;85.30
85671;DHT22;76102;50.890;3.932;2024-03-22T07:42:34;10.40;85.70
85671;DHT22;76102;50.890;3.932;2024-03-22T07:45:02;10.50;86.30
85671;DHT22;76102;50.890;3.932;2024-03-22T07:47:29;10.40;85.90
85671;DHT22;76102;50.890;3.932;2024-03-22T07:49:55;10.40;86.10
85671;DHT22;76102;50.890;3.932;2024-03-22T07:52:23;10.50;86.50
85671;DHT22;76102;50.890;3.932;2024-03-22T07:54:52;10.60;85.90
85671;DHT22;76102;50.890;3.932;2024-03-22T07:57:19;10.80;85.20
85671;DHT22;76102;50.890;3.932;2024-03-22T07:59:48;10.80;85.40
85671;DHT22;76102;50.890;3.932;2024-03-22T08:02:13;10.80;84.90
85671;DHT22;76102;50.890;3.932;2024-03-22T08:04:39;11.00;84.30
85671;DHT22;76102;50.890;3.932;2024-03-22T08:07:05;10.90;84.20
85671;DHT22;76102;50.890;3.932;2024-03-22T08:09:31;10.80;84.90
85671;DHT22;76102;50.890;3.932;2024-03-22T08:11:57;10.80;85.70
85671;DHT22;76102;50.890;3.932;2024-03-22T08:14:24;10.80;85.90
85671;DHT22;76102;50.890;3.932;2024-03-22T08:16:55;10.90;85.00
85671;DHT22;76102;50.890;3.932;2024-03-22T08:19:23;11.00;84.70
85671;DHT22;76102;50.890;3.932;2024-03-22T08:21:48;10.90;84.50
85671;DHT22;76102;50.890;3.932;2024-03-22T08:24:16;11.10;84.70
85671;DHT22;76102;50.890;3.932;2024-03-22T08:26:42;11.30;84.20
85671;DHT22;76102;50.890;3.932;2024-03-22T08:29:13;11.50;84.00
85671;DHT22;76102;50.890;3.932;2024-03-22T08:31:42;11.70;82.50
85671;DHT22;76102;50.890;3.932;2024-03-22T08:34:12;11.50;83.20
85671;DHT22;76102;50.890;3.932;2024-03-22T08:36:40;11.70;82.30
85671;DHT22;76102;50.890;3.932;2024-03-22T08:39:08;11.50;83.50
85671;DHT22;76102;50.890;3.932;2024-03-22T08:41:38;11.50;82.60
85671;DHT22;76102;50.890;3.932;2024-03-22T08:44:07;11.60;82.70
85671;DHT22;76102;50.890;3.932;2024-03-22T08:46:32;11.60;81.70
85671;DHT22;76102;50.890;3.932;2024-03-22T08:49:03;11.60;82.20
85671;DHT22;76102;50.890;3.932;2024-03-22T08:51:29;11.40;82.40
85671;DHT22;76102;50.890;3.932;2024-03-22T08:53:56;11.50;81.90
85671;DHT22;76102;50.890;3.932;2024-03-22T08:56:23;11.40;81.40
85671;DHT22;76102;50.890;3.932;2024-03-22T08:58:49;11.40;81.80
85671;DHT22;76102;50.890;3.932;2024-03-22T09:01:15;11.40;81.80
85671;DHT22;76102;50.890;3.932;2024-03-22T09:03:41;11.50;82.60
85671;DHT22;76102;50.890;3.932;2024-03-22T09:06:10;11.70;82.80
85671;DHT22;76102;50.890;3.932;2024-03-22T09:08:36;12.10;81.20
85671;DHT22;76102;50.890;3.932;2024-03-22T09:11:04;12.10;80.50
85671;DHT22;76102;50.890;3.932;2024-03-22T09:13:30;12.20;79.10
85671;DHT22;76102;50.890;3.932;2024-03-22T09:15:59;11.90;80.00
85671;DHT22;76102;50.890;3.932;2024-03-22T09:18:27;11.90;80.50
85671;DHT22;76102;50.890;3.932;2024-03-22T09:20:53;11.90;79.70
85671;DHT22;76102;50.890;3.932;2024-03-22T09:23:19;11.90;80.40
85671;DHT22;76102;50.890;3.932;2024-03-22T09:25:47;11.90;80.00
85671;DHT22;76102;50.890;3.932;2024-03-22T09:28:16;11.90;79.50
85671;DHT22;76102;50.890;3.932;2024-03-22T09:30:41;12.10;79.50
85671;DHT22;76102;50.890;3.932;2024-03-22T09:33:08;12.20;77.60
85671;DHT22;76102;50.890;3.932;2024-03-22T09:35:36;11.90;78.10
85671;DHT22;76102;50.890;3.932;2024-03-22T09:38:02;11.80;79.30
85671;DHT22;76102;50.890;3.932;2024-03-22T09:40:30;11.90;79.80
85671;DHT22;76102;50.890;3.932;2024-03-22T09:43:01;11.80;78.10
85671;DHT22;76102;50.890;3.932;2024-03-22T09:45:31;11.80;79.00
85671;DHT22;76102;50.890;3.932;2024-03-22T09:47:59;11.80;79.10
85671;DHT22;76102;50.890;3.932;2024-03-22T09:50:26;11.90;78.30
85671;DHT22;76102;50.890;3.932;2024-03-22T09:52:52;11.80;78.70
85671;DHT22;76102;50.890;3.932;2024-03-22T09:55:22;11.90;77.60
85671;DHT22;76102;50.890;3.932;2024-03-22T09:57:49;11.90;78.60
85671;DHT22;76102;50.890;3.932;2024-03-22T10:00:19;11.80;77.90
85671;DHT22;76102;50.890;3.932;2024-03-22T10:02:50;11.60;78.30
85671;DHT22;76102;50.890;3.932;2024-03-22T10:05:18;11.80;79.30
85671;DHT22;76102;50.890;3.932;2024-03-22T10:07:47;11.80;77.70
85671;DHT22;76102;50.890;3.932;2024-03-22T10:10:15;11.80;78.60
85671;DHT22;76102;50.890;3.932;2024-03-22T10:12:41;11.80;78.30
85671;DHT22;76102;50.890;3.932;2024-03-22T10:15:07;11.80;78.30
85671;DHT22;76102;50.890;3.932;2024-03-22T10:17:39;12.00;79.20
85671;DHT22;76102;50.890;3.932;2024-03-22T10:20:07;12.30;77.40
85671;DHT22;76102;50.890;3.932;2024-03-22T10:23:15;12.50;76.50
85671;DHT22;76102;50.890;3.932;2024-03-22T10:25:38;12.50;76.00
85671;DHT22;76102;50.890;3.932;2024-03-22T10:28:04;12.50;76.20
85671;DHT22;76102;50.890;3.932;2024-03-22T10:30:30;12.20;76.10
85671;DHT22;76102;50.890;3.932;2024-03-22T10:32:56;12.30;76.40
85671;DHT22;76102;50.890;3.932;2024-03-22T10:35:23;12.20;77.00
85671;DHT22;76102;50.890;3.932;2024-03-22T10:37:50;12.10;77.10
85671;DHT22;76102;50.890;3.932;2024-03-22T10:40:19;12.30;77.10
85671;DHT22;76102;50.890;3.932;2024-03-22T10:42:45;12.20;76.80
85671;DHT22;76102;50.890;3.932;2024-03-22T10:45:13;12.20;76.90
85671;DHT22;76102;50.890;3.932;2024-03-22T10:47:39;12.20;77.00
85671;DHT22;76102;50.890;3.932;2024-03-22T10:50:09;12.30;77.60
85671;DHT22;76102;50.890;3.932;2024-03-22T10:52:42;12.20;77.40
85671;DHT22;76102;50.890;3.932;2024-03-22T10:55:19;12.20;77.20
85671;DHT22;76102;50.890;3.932;2024-03-22T10:57:48;12.20;77.80
85671;DHT22;76102;50.890;3.932;2024-03-22T11:00:14;12.10;76.80
85671;DHT22;76102;50.890;3.932;2024-03-22T11:02:44;12.20;78.60
85671;DHT22;76102;50.890;3.932;2024-03-22T11:05:17;12.20;77.70
85671;DHT22;76102;50.890;3.932;2024-03-22T11:07:46;12.10;78.50
85671;DHT22;76102;50.890;3.932;2024-03-22T11:10:12;12.30;77.00
85671;DHT22;76102;50.890;3.932;2024-03-22T11:12:41;12.30;77.80
85671;DHT22;76102;50.890;3.932;2024-03-22T11:15:10;12.10;77.60
85671;DHT22;76102;50.890;3.932;2024-03-22T11:17:37;12.00;77.90
85671;DHT22;76102;50.890;3.932;2024-03-22T11:20:06;11.90;78.20
85671;DHT22;76102;50.890;3.932;2024-03-22T11:22:31;11.90;77.80
85671;DHT22;76102;50.890;3.932;2024-03-22T11:24:59;11.90;78.00
85671;DHT22;76102;50.890;3.932;2024-03-22T11:27:25;11.90;78.00
85671;DHT22;76102;50.890;3.932;2024-03-22T11:29:54;11.70;78.00
85671;DHT22;76102;50.890;3.932;2024-03-22T11:32:22;11.80;78.40
85671;DHT22;76102;50.890;3.932;2024-03-22T11:34:53;11.90;79.00
85671;DHT22;76102;50.890;3.932;2024-03-22T11:37:19;11.80;78.70
85671;DHT22;76102;50.890;3.932;2024-03-22T11:39:46;11.90;79.50
85671;DHT22;76102;50.890;3.932;2024-03-22T11:42:16;12.00;78.70
85671;DHT22;76102;50.890;3.932;2024-03-22T11:44:42;12.10;79.20
85671;DHT22;76102;50.890;3.932;2024-03-22T11:47:08;12.00;78.10
85671;DHT22;76102;50.890;3.932;2024-03-22T11:49:35;11.80;78.50
85671;DHT22;76102;50.890;3.932;2024-03-22T11:52:00;11.80;79.50
85671;DHT22;76102;50.890;3.932;2024-03-22T11:54:26;11.80;79.10
85671;DHT22;76102;50.890;3.932;2024-03-22T11:56:57;11.90;79.60
85671;DHT22;76102;50.890;3.932;2024-03-22T11:59:23;12.00;79.70
85671;DHT22;76102;50.890;3.932;2024-03-22T12:01:48;11.90;80.30
85671;DHT22;76102;50.890;3.932;2024-03-22T12:04:17;11.70;80.00
85671;DHT22;76102;50.890;3.932;2024-03-22T12:06:46;11.70;80.90
85671;DHT22;76102;50.890;3.932;2024-03-22T12:09:12;11.80;79.80
85671;DHT22;76102;50.890;3.932;2024-03-22T12:11:39;11.80;79.90
85671;DHT22;76102;50.890;3.932;2024-03-22T12:14:05;11.70;80.20
85671;DHT22;76102;50.890;3.932;2024-03-22T12:16:30;11.80;80.50
85671;DHT22;76102;50.890;3.932;2024-03-22T12:18:58;11.80;80.50
85671;DHT22;76102;50.890;3.932;2024-03-22T12:21:26;11.70;80.20
85671;DHT22;76102;50.890;3.932;2024-03-22T12:23:55;11.60;80.90
85671;DHT22;76102;50.890;3.932;2024-03-22T12:26:21;11.60;81.10
85671;DHT22;76102;50.890;3.932;2024-03-22T12:28:46;11.70;82.20
85671;DHT22;76102;50.890;3.932;2024-03-22T12:31:17;11.70;81.00
85671;DHT22;76102;50.890;3.932;2024-03-22T12:33:50;11.70;81.10
85671;DHT22;76102;50.890;3.932;2024-03-22T12:36:16;11.70;81.80
85671;DHT22;76102;50.890;3.932;2024-03-22T12:38:41;11.70;81.10
85671;DHT22;76102;50.890;3.932;2024-03-22T12:41:09;11.80;81.40
85671;DHT22;76102;50.890;3.932;2024-03-22T12:43:37;11.90;81.70
85671;DHT22;76102;50.890;3.932;2024-03-22T12:46:03;11.90;81.70
85671;DHT22;76102;50.890;3.932;2024-03-22T12:48:31;12.00;81.40
85671;DHT22;76102;50.890;3.932;2024-03-22T12:50:59;12.00;82.50
85671;DHT22;76102;50.890;3.932;2024-03-22T12:53:25;12.00;81.90
85671;DHT22;76102;50.890;3.932;2024-03-22T12:55:51;12.00;81.80
85671;DHT22;76102;50.890;3.932;2024-03-22T12:58:19;11.90;83.30
85671;DHT22;76102;50.890;3.932;2024-03-22T13:00:44;11.60;85.10
85671;DHT22;76102;50.890;3.932;2024-03-22T13:03:10;11.50;86.10
85671;DHT22;76102;50.890;3.932;2024-03-22T13:05:40;11.30;87.70
85671;DHT22;76102;50.890;3.932;2024-03-22T13:08:06;11.20;88.30
85671;DHT22;76102;50.890;3.932;2024-03-22T13:10:32;11.30;89.50
85671;DHT22;76102;50.890;3.932;2024-03-22T13:13:00;11.40;90.10
85671;DHT22;76102;50.890;3.932;2024-03-22T13:15:28;11.30;90.00
85671;DHT22;76102;50.890;3.932;2024-03-22T13:17:58;11.30;89.90
85671;DHT22;76102;50.890;3.932;2024-03-22T13:20:24;11.30;90.20
85671;DHT22;76102;50.890;3.932;2024-03-22T13:22:52;11.20;90.20
85671;DHT22;76102;50.890;3.932;2024-03-22T13:25:17;11.20;90.30
85671;DHT22;76102;50.890;3.932;2024-03-22T13:27:44;11.10;90.80
85671;DHT22;76102;50.890;3.932;2024-03-22T13:30:12;10.90;90.90
85671;DHT22;76102;50.890;3.932;2024-03-22T13:32:38;10.90;91.40
85671;DHT22;76102;50.890;3.932;2024-03-22T13:35:05;10.80;91.80
85671;DHT22;76102;50.890;3.932;2024-03-22T13:37:31;10.80;92.00
85671;DHT22;76102;50.890;3.932;2024-03-22T13:39:59;10.80;92.40
85671;DHT22;76102;50.890;3.932;2024-03-22T13:42:25;11.00;92.70
85671;DHT22;76102;50.890;3.932;2024-03-22T13:44:53;11.10;91.90
85671;DHT22;76102;50.890;3.932;2024-03-22T13:47:24;11.20;91.20
85671;DHT22;76102;50.890;3.932;2024-03-22T13:49:50;11.30;91.30
85671;DHT22;76102;50.890;3.932;2024-03-22T13:52:20;11.20;91.50
85671;DHT22;76102;50.890;3.932;2024-03-22T13:54:48;11.00;91.50
85671;DHT22;76102;50.890;3.932;2024-03-22T13:57:15;11.20;91.60
85671;DHT22;76102;50.890;3.932;2024-03-22T13:59:41;11.20;91.30
85671;DHT22;76102;50.890;3.932;2024-03-22T14:02:07;11.30;91.40
85671;DHT22;76102;50.890;3.932;2024-03-22T14:04:37;11.30;90.80
85671;DHT22;76102;50.890;3.932;2024-03-22T14:07:05;11.10;90.60
85671;DHT22;76102;50.890;3.932;2024-03-22T14:09:34;11.20;90.40
85671;DHT22;76102;50.890;3.932;2024-03-22T14:12:03;11.20;90.70
85671;DHT22;76102;50.890;3.932;2024-03-22T14:14:29;11.10;90.70
85671;DHT22;76102;50.890;3.932;2024-03-22T14:16:55;11.00;90.60
85671;DHT22;76102;50.890;3.932;2024-03-22T14:19:23;11.00;91.40
85671;DHT22;76102;50.890;3.932;2024-03-22T14:21:49;11.00;90.80
85671;DHT22;76102;50.890;3.932;2024-03-22T14:24:15;11.10;90.30
85671;DHT22;76102;50.890;3.932;2024-03-22T14:26:41;11.10;90.20
85671;DHT22;76102;50.890;3.932;2024-03-22T14:29:14;11.10;89.70
85671;DHT22;76102;50.890;3.932;2024-03-22T14:31:39;11.10;90.30
85671;DHT22;76102;50.890;3.932;2024-03-22T14:34:09;10.90;90.40
85671;DHT22;76102;50.890;3.932;2024-03-22T14:36:36;10.90;91.00
85671;DHT22;76102;50.890;3.932;2024-03-22T14:39:03;11.10;91.00
85671;DHT22;76102;50.890;3.932;2024-03-22T14:41:32;11.20;90.80
85671;DHT22;76102;50.890;3.932;2024-03-22T14:44:00;11.30;90.80
85671;DHT22;76102;50.890;3.932;2024-03-22T14:46:29;11.30;90.10
85671;DHT22;76102;50.890;3.932;2024-03-22T14:48:57;11.20;90.40
85671;DHT22;76102;50.890;3.932;2024-03-22T14:51:25;11.20;90.30
85671;DHT22;76102;50.890;3.932;2024-03-22T14:53:53;11.20;90.30
85671;DHT22;76102;50.890;3.932;2024-03-22T14:56:18;11.00;90.60
85671;DHT22;76102;50.890;3.932;2024-03-22T14:58:45;11.00;90.10
85671;DHT22;76102;50.890;3.932;2024-03-22T15:01:10;11.00;90.70
85671;DHT22;76102;50.890;3.932;2024-03-22T15:03:36;10.90;90.60
85671;DHT22;76102;50.890;3.932;2024-03-22T15:06:02;10.90;90.50
85671;DHT22;76102;50.890;3.932;2024-03-22T15:08:28;10.80;90.80
85671;DHT22;76102;50.890;3.932;2024-03-22T15:11:00;10.80;90.40
85671;DHT22;76102;50.890;3.932;2024-03-22T15:13:30;10.90;90.10
85671;DHT22;76102;50.890;3.932;2024-03-22T15:15:58;10.90;90.40
85671;DHT22;76102;50.890;3.932;2024-03-22T15:18:29;10.80;90.50
85671;DHT22;76102;50.890;3.932;2024-03-22T15:20:55;10.70;90.90
85671;DHT22;76102;50.890;3.932;2024-03-22T15:23:20;10.60;91.50
85671;DHT22;76102;50.890;3.932;2024-03-22T15:25:46;10.60;91.70
85671;DHT22;76102;50.890;3.932;2024-03-22T15:28:13;10.60;91.60
85671;DHT22;76102;50.890;3.932;2024-03-22T15:30:39;10.50;91.60